createdAt,value
2023-05-02T00:01:23.566Z,100483.44
2023-05-02T00:06:26.572Z,100475.25
2023-05-02T00:11:30.710Z,100473.50
2023-05-02T00:16:33.439Z,100472.19
2023-05-02T00:21:36.171Z,100478.91
2023-05-02T00:26:40.228Z,100490.09
2023-05-02T00:31:43.286Z,100485.94
2023-05-02T00:36:46.204Z,100486.31
2023-05-02T00:41:50.535Z,100489.59
2023-05-02T00:46:53.787Z,100500.75
2023-05-02T00:51:56.686Z,100493.91
2023-05-02T00:57:00.587Z,100489.59
2023-05-02T01:02:20.756Z,100497.66
2023-05-02T01:07:37.688Z,100498.78
2023-05-02T01:12:44.399Z,100497.06
2023-05-02T01:17:49.562Z,100502.94
2023-05-02T01:22:53.497Z,100508.53
2023-05-02T01:28:09.884Z,100508.78
2023-05-02T01:33:17.497Z,100516.75
2023-05-02T01:38:21.693Z,100509.41
2023-05-02T01:43:27.051Z,100519.31
2023-05-02T01:48:31.475Z,100505.84
2023-05-02T01:53:36.838Z,100518.03
2023-05-02T01:58:40.685Z,100525.88
2023-05-02T02:03:46.099Z,100539.44
2023-05-02T02:08:49.335Z,100547.03
2023-05-02T02:13:59.900Z,100558.53
2023-05-02T02:19:08.373Z,100557.28
2023-05-02T02:24:13.640Z,100566.81
2023-05-02T02:29:16.324Z,100567.28
2023-05-02T02:34:21.096Z,100563.88
2023-05-02T02:39:36.840Z,100568.25
2023-05-02T02:44:48.486Z,100575.16
2023-05-02T02:50:07.180Z,100588.09
2023-05-02T02:55:14.102Z,100592.34
2023-05-02T03:00:21.282Z,100591.03
2023-05-02T03:05:26.340Z,100598.66
2023-05-02T03:10:29.117Z,100597.41
2023-05-02T03:16:13.543Z,100603.00
2023-05-02T03:21:18.495Z,100609.34
2023-05-02T03:26:22.432Z,100621.47
2023-05-02T03:31:26.919Z,100620.22
2023-05-02T03:36:31.776Z,100631.41
2023-05-02T03:41:34.675Z,100626.50
2023-05-02T03:46:43.061Z,100631.44
2023-05-02T03:51:49.500Z,100634.94
2023-05-02T03:56:58.106Z,100636.47
2023-05-02T04:02:05.746Z,100644.22
2023-05-02T04:07:19.319Z,100654.66
2023-05-02T04:12:26.567Z,100664.88
2023-05-02T04:17:30.071Z,100665.25
2023-05-02T04:22:34.431Z,100681.69
2023-05-02T04:27:40.795Z,100674.56
2023-05-02T04:32:47.982Z,100684.56
2023-05-02T04:37:52.639Z,100697.94
2023-05-02T04:42:55.666Z,100702.94
2023-05-02T04:48:01.106Z,100706.59
2023-05-02T04:53:05.480Z,100718.09
2023-05-02T04:58:09.843Z,100726.94
2023-05-02T05:03:12.864Z,100739.47
2023-05-02T05:08:17.211Z,100744.00
2023-05-02T05:13:20.028Z,100744.88
2023-05-02T05:18:24.962Z,100749.06
2023-05-02T05:23:29.232Z,100754.28
2023-05-02T05:28:32.187Z,100766.31
2023-05-02T05:33:35.248Z,100777.59
2023-05-02T05:38:40.518Z,100800.22
2023-05-02T05:43:45.420Z,100817.59
2023-05-02T05:48:48.708Z,100830.81
2023-05-02T05:53:53.339Z,100865.44
2023-05-02T05:58:56.224Z,100860.34
2023-05-02T06:03:59.266Z,100875.97
2023-05-02T06:09:04.220Z,100890.53
2023-05-02T06:14:08.599Z,100890.53
2023-05-02T06:19:12.291Z,100900.47
2023-05-02T06:24:16.935Z,100917.13
2023-05-02T06:29:19.795Z,100921.63
2023-05-02T06:34:22.521Z,100932.63
2023-05-02T06:39:26.650Z,100940.56
2023-05-02T06:44:29.544Z,100952.31
2023-05-02T06:49:32.342Z,100954.41
2023-05-02T06:54:36.504Z,100965.69
2023-05-02T06:59:39.241Z,100984.88
2023-05-02T07:04:42.069Z,100998.94
2023-05-02T07:09:46.236Z,101004.31
2023-05-02T07:14:49.034Z,100997.38
2023-05-02T07:19:51.782Z,101014.75
2023-05-02T07:25:00.162Z,101026.06
2023-05-02T07:30:03.372Z,101038.47
2023-05-02T07:35:07.274Z,101041.03
2023-05-02T07:40:12.131Z,101045.69
2023-05-02T07:45:14.881Z,101062.41
2023-05-02T07:50:17.792Z,101064.47
2023-05-02T07:55:22.197Z,101065.59
2023-05-02T08:00:25.023Z,101067.69
2023-05-02T08:05:27.953Z,101071.66
2023-05-02T08:10:32.055Z,101078.41
2023-05-02T08:15:35.206Z,101100.03
2023-05-02T08:20:38.142Z,101107.38
2023-05-02T08:25:43.534Z,101110.66
2023-05-02T08:30:46.408Z,101118.09
2023-05-02T08:35:49.380Z,101124.47
2023-05-02T08:40:53.544Z,101133.66
2023-05-02T08:46:00.814Z,101145.53
2023-05-02T08:51:03.993Z,101141.66
2023-05-02T08:56:10.325Z,101150.47
2023-05-02T09:01:16.430Z,101153.72
2023-05-02T09:06:21.328Z,101156.78
2023-05-02T09:11:25.647Z,101159.09
2023-05-02T09:16:29.419Z,101169.47
2023-05-02T09:21:38.032Z,101191.53
2023-05-02T09:26:42.221Z,101196.94
2023-05-02T09:31:55.456Z,101193.53
2023-05-02T09:36:59.346Z,101198.31
2023-05-02T09:42:04.066Z,101203.31
2023-05-02T09:47:08.980Z,101220.13
2023-05-02T09:52:12.952Z,101219.72
2023-05-02T09:57:17.172Z,101233.41
2023-05-02T10:02:21.878Z,101234.06
2023-05-02T10:07:26.010Z,101231.97
2023-05-02T10:12:31.684Z,101247.94
2023-05-02T10:17:42.177Z,101244.84
2023-05-02T10:22:47.049Z,101249.41
2023-05-02T10:27:51.353Z,101248.69
2023-05-02T10:32:54.985Z,101257.94
2023-05-02T10:37:58.777Z,101273.25
2023-05-02T10:43:05.480Z,101265.44
2023-05-02T10:48:18.835Z,101262.47
2023-05-02T10:53:29.951Z,101273.72
2023-05-02T10:58:34.271Z,101275.47
2023-05-02T11:03:57.376Z,101271.38
2023-05-02T11:09:31.545Z,101275.06
2023-05-02T11:14:47.458Z,101280.94
2023-05-02T11:20:30.060Z,101269.03
2023-05-02T11:25:38.094Z,101278.94
2023-05-02T11:30:44.208Z,101276.50
2023-05-02T11:35:48.851Z,101278.22
2023-05-02T11:40:56.734Z,101271.75
2023-05-02T11:46:02.602Z,101280.88
2023-05-02T11:51:07.193Z,101282.50
2023-05-02T11:56:10.158Z,101293.53
2023-05-02T12:01:17.424Z,101301.56
2023-05-02T12:06:20.690Z,101307.28
2023-05-02T12:11:24.777Z,101313.91
2023-05-02T12:16:29.127Z,101328.22
2023-05-02T12:21:32.917Z,101330.88
2023-05-02T12:26:35.830Z,101337.47
2023-05-02T12:31:40.032Z,101345.22
2023-05-02T12:36:45.302Z,101339.00
2023-05-02T12:41:48.139Z,101345.81
2023-05-02T12:47:01.988Z,101349.38
2023-05-02T12:52:05.160Z,101345.22
2023-05-02T12:57:09.182Z,101347.97
2023-05-02T13:02:13.460Z,101358.06
2023-05-02T13:07:16.236Z,101371.22
2023-05-02T13:12:19.097Z,101369.88
2023-05-02T13:17:23.308Z,101368.22
2023-05-02T13:22:26.324Z,101370.63
2023-05-02T13:27:29.112Z,101378.44
2023-05-02T13:32:33.373Z,101370.19
2023-05-02T13:37:36.150Z,101384.13
2023-05-02T13:42:38.906Z,101378.53
2023-05-02T13:47:43.083Z,101382.66
2023-05-02T13:52:48.354Z,101393.72
2023-05-02T13:57:51.871Z,101401.06
2023-05-02T14:02:56.174Z,101407.47
2023-05-02T14:07:58.986Z,101398.63
2023-05-02T14:13:01.705Z,101398.56
2023-05-02T14:18:05.903Z,101409.44
2023-05-02T14:23:08.729Z,101402.38
2023-05-02T14:28:11.454Z,101406.72
2023-05-02T14:33:15.837Z,101421.91
2023-05-02T14:38:18.580Z,101421.91
2023-05-02T14:43:22.407Z,101417.66
2023-05-02T14:48:26.791Z,101422.28
2023-05-02T14:53:29.731Z,101420.44
2023-05-02T14:58:32.506Z,101424.41
2023-05-02T15:03:49.094Z,101425.66
2023-05-02T15:08:59.352Z,101427.19
2023-05-02T15:14:02.126Z,101413.56
2023-05-02T15:19:06.339Z,101424.69
2023-05-02T15:24:09.302Z,101429.97
2023-05-02T15:29:12.094Z,101432.28
2023-05-02T15:34:16.499Z,101420.81
2023-05-02T15:39:19.292Z,101429.56
2023-05-02T15:44:22.319Z,101438.38
2023-05-02T15:49:31.570Z,101431.38
2023-05-02T15:54:34.410Z,101430.81
2023-05-02T15:59:37.143Z,101425.25
2023-05-02T16:04:43.037Z,101425.25
2023-05-02T16:09:46.283Z,101435.09
2023-05-02T16:14:49.081Z,101431.91
2023-05-02T16:19:53.238Z,101444.97
2023-05-02T16:24:56.025Z,101448.09
2023-05-02T16:30:00.089Z,101450.06
2023-05-02T16:35:07.261Z,101449.09
2023-05-02T16:40:11.208Z,101438.56
2023-05-02T16:45:14.620Z,101453.75
2023-05-02T16:50:18.807Z,101453.00
2023-05-02T16:55:21.868Z,101464.34
2023-05-02T17:00:24.869Z,101466.69
2023-05-02T17:05:29.170Z,101473.38
2023-05-02T17:10:32.249Z,101476.81
2023-05-02T17:15:39.097Z,101482.72
2023-05-02T17:20:43.458Z,101488.44
2023-05-02T17:25:46.837Z,101484.34
2023-05-02T17:30:54.384Z,101487.13
2023-05-02T17:35:58.744Z,101489.25
2023-05-02T17:41:03.902Z,101498.03
2023-05-02T17:46:10.170Z,101491.09
2023-05-02T17:51:14.438Z,101498.69
2023-05-02T17:56:18.715Z,101505.50
2023-05-02T18:01:21.611Z,101502.94
2023-05-02T18:06:27.441Z,101499.31
2023-05-02T18:11:32.036Z,101505.75
2023-05-02T18:16:36.241Z,101513.06
2023-05-02T18:21:40.808Z,101509.50
2023-05-02T18:26:43.717Z,101516.81
2023-05-02T18:31:52.630Z,101519.22
2023-05-02T18:36:59.904Z,101515.09
2023-05-02T18:42:04.045Z,101516.06
2023-05-02T18:47:06.896Z,101519.69
2023-05-02T18:52:11.053Z,101523.50
2023-05-02T18:57:14.101Z,101531.16
2023-05-02T19:02:16.967Z,101536.84
2023-05-02T19:07:21.103Z,101525.72
2023-05-02T19:12:23.862Z,101538.13
2023-05-02T19:17:26.785Z,101545.53
2023-05-02T19:22:33.658Z,101551.38
2023-05-02T19:27:36.499Z,101546.59
2023-05-02T19:32:39.284Z,101550.81
2023-05-02T19:37:43.995Z,101562.13
2023-05-02T19:42:46.787Z,101571.16
2023-05-02T19:47:49.577Z,101585.63
2023-05-02T19:52:53.692Z,101584.09
2023-05-02T19:57:56.490Z,101585.41
2023-05-02T20:02:59.553Z,101590.91
2023-05-02T20:08:03.734Z,101578.25
2023-05-02T20:13:06.712Z,101587.25
2023-05-02T20:18:09.558Z,101587.69
2023-05-02T20:23:14.148Z,101600.41
2023-05-02T20:28:17.043Z,101607.00
2023-05-02T20:33:20.012Z,101605.44
2023-05-02T20:38:24.743Z,101621.69
2023-05-02T20:43:28.915Z,101623.50
2023-05-02T20:48:31.632Z,101614.66
2023-05-02T20:53:36.638Z,101619.34
2023-05-02T20:58:39.326Z,101624.44
2023-05-02T21:03:42.050Z,101617.78
2023-05-02T21:08:46.278Z,101630.81
2023-05-02T21:13:48.972Z,101626.75
2023-05-02T21:18:51.560Z,101626.63
2023-05-02T21:23:56.049Z,101630.31
2023-05-02T21:28:58.880Z,101617.84
2023-05-02T21:34:02.983Z,101626.25
2023-05-02T21:39:07.793Z,101626.75
2023-05-02T21:44:13.870Z,101627.66
2023-05-02T21:49:17.055Z,101626.88
2023-05-02T21:54:21.717Z,101633.03
2023-05-02T21:59:24.773Z,101624.59
2023-05-02T22:04:31.509Z,101631.69
2023-05-02T22:09:36.224Z,101637.44
2023-05-02T22:14:45.265Z,101632.06
2023-05-02T22:19:49.449Z,101632.69
2023-05-02T22:24:53.575Z,101641.47
2023-05-02T22:29:56.549Z,101648.16
2023-05-02T22:34:59.369Z,101661.13
2023-05-02T22:40:03.840Z,101669.16
2023-05-02T22:45:09.533Z,101657.75
2023-05-02T22:50:13.071Z,101658.38
2023-05-02T22:55:17.460Z,101666.41
2023-05-02T23:00:22.507Z,101666.81
2023-05-02T23:05:25.274Z,101667.66
2023-05-02T23:10:29.451Z,101658.28
2023-05-02T23:15:32.226Z,101659.53
2023-05-02T23:20:35.227Z,101658.78
2023-05-02T23:25:39.988Z,101670.72
2023-05-02T23:30:42.756Z,101679.06
2023-05-02T23:35:45.489Z,101667.00
2023-05-02T23:40:49.682Z,101667.19
2023-05-02T23:45:52.433Z,101654.09
2023-05-02T23:50:55.167Z,101659.19
2023-05-02T23:56:00.191Z,101671.19
